createdAt,value
2022-12-22T00:01:52.943Z,3.73
2022-12-22T00:04:37.853Z,3.80
2022-12-22T00:07:23.071Z,3.82
2022-12-22T00:10:08.102Z,3.85
2022-12-22T00:12:54.820Z,3.80
2022-12-22T00:15:39.903Z,3.82
2022-12-22T00:18:25.276Z,3.77
2022-12-22T00:21:10.469Z,3.80
2022-12-22T00:23:55.484Z,4.09
2022-12-22T00:26:40.673Z,4.01
2022-12-22T00:29:32.527Z,3.93
2022-12-22T00:32:17.236Z,3.80
2022-12-22T00:35:02.383Z,3.85
2022-12-22T00:37:52.277Z,3.88
2022-12-22T00:40:38.601Z,3.84
2022-12-22T00:43:23.840Z,3.75
2022-12-22T00:46:10.118Z,3.75
2022-12-22T00:48:56.078Z,3.94
2022-12-22T00:51:41.107Z,4.07
2022-12-22T00:54:30.197Z,4.01
2022-12-22T00:57:18.526Z,4.07
2022-12-22T01:00:04.615Z,4.14
2022-12-22T01:02:55.177Z,4.43
2022-12-22T01:05:40.266Z,4.02
2022-12-22T01:08:29.106Z,4.25
2022-12-22T01:11:14.175Z,4.10
2022-12-22T01:13:59.084Z,4.06
2022-12-22T01:16:44.177Z,4.04
2022-12-22T01:19:29.275Z,4.45
2022-12-22T01:22:15.865Z,4.13
2022-12-22T01:25:04.414Z,4.14
2022-12-22T01:27:49.481Z,4.15
2022-12-22T01:30:34.361Z,4.17
2022-12-22T01:33:20.311Z,4.16
2022-12-22T01:36:05.153Z,4.19
2022-12-22T01:38:50.045Z,4.16
2022-12-22T01:41:38.825Z,4.12
2022-12-22T01:44:31.669Z,4.11
2022-12-22T01:47:35.635Z,4.09
2022-12-22T01:50:20.657Z,3.92
2022-12-22T01:53:05.846Z,3.88
2022-12-22T01:55:58.061Z,3.88
2022-12-22T01:58:49.042Z,4.05
2022-12-22T02:01:34.102Z,4.15
2022-12-22T02:04:19.457Z,4.01
2022-12-22T02:07:05.185Z,4.01
2022-12-22T02:10:28.959Z,4.10
2022-12-22T02:16:44.503Z,4.09
2022-12-22T02:19:45.166Z,3.94
2022-12-22T02:22:32.853Z,3.86
2022-12-22T02:25:27.706Z,3.92
2022-12-22T02:28:14.228Z,3.97
2022-12-22T02:30:59.887Z,4.07
2022-12-22T02:33:45.111Z,4.23
2022-12-22T02:36:39.591Z,4.24
2022-12-22T02:39:33.742Z,4.14
2022-12-22T02:42:36.222Z,4.18
2022-12-22T02:45:36.995Z,4.32
2022-12-22T02:48:21.759Z,4.23
2022-12-22T02:51:13.799Z,4.46
2022-12-22T02:53:59.196Z,4.27
2022-12-22T02:56:44.342Z,4.19
2022-12-22T02:59:29.524Z,4.11
2022-12-22T03:02:14.664Z,4.20
2022-12-22T03:05:05.112Z,4.25
2022-12-22T03:07:50.004Z,4.29
2022-12-22T03:10:34.993Z,4.27
2022-12-22T03:13:20.282Z,4.30
2022-12-22T03:16:05.213Z,4.28
2022-12-22T03:19:10.150Z,4.36
2022-12-22T03:21:55.527Z,4.33
2022-12-22T03:24:42.455Z,4.30
2022-12-22T03:27:08.772Z,4.18
2022-12-22T03:29:35.109Z,4.41
2022-12-22T03:32:01.559Z,4.31
2022-12-22T03:34:27.926Z,4.41
2022-12-22T03:36:54.291Z,4.39
2022-12-22T03:39:20.624Z,4.36
2022-12-22T03:42:05.387Z,4.42
2022-12-22T03:44:50.168Z,4.37
2022-12-22T03:47:16.570Z,4.39
2022-12-22T03:49:45.015Z,4.49
2022-12-22T03:52:11.385Z,4.45
2022-12-22T03:54:39.772Z,4.46
2022-12-22T03:57:06.119Z,4.46
2022-12-22T03:59:32.557Z,4.49
2022-12-22T04:01:59.085Z,4.46
2022-12-22T04:04:26.295Z,4.47
2022-12-22T04:06:53.157Z,4.54
2022-12-22T04:09:34.616Z,4.52
2022-12-22T04:12:19.676Z,4.52
2022-12-22T04:14:54.187Z,4.36
2022-12-22T04:17:20.510Z,4.45
2022-12-22T04:19:50.947Z,4.46
2022-12-22T04:22:17.319Z,4.45
2022-12-22T04:24:43.667Z,4.33
2022-12-22T04:27:09.989Z,4.44
2022-12-22T04:29:36.309Z,4.45
2022-12-22T04:32:03.847Z,4.53
2022-12-22T04:34:30.215Z,4.48
2022-12-22T04:37:02.331Z,4.48
2022-12-22T04:39:33.805Z,4.57
2022-12-22T04:42:00.146Z,4.61
2022-12-22T04:44:26.468Z,4.65
2022-12-22T04:46:52.774Z,4.53
2022-12-22T04:49:19.071Z,4.46
2022-12-22T04:51:45.410Z,4.58
2022-12-22T04:54:11.776Z,4.55
2022-12-22T04:56:38.099Z,4.55
2022-12-22T04:59:04.422Z,4.45
2022-12-22T05:01:30.962Z,4.58
2022-12-22T05:03:57.369Z,4.65
2022-12-22T05:06:23.701Z,4.63
2022-12-22T05:08:50.104Z,4.61
2022-12-22T05:11:16.735Z,4.73
2022-12-22T05:13:43.175Z,4.57
2022-12-22T05:16:11.065Z,4.65
2022-12-22T05:18:38.133Z,4.73
2022-12-22T05:21:06.654Z,4.80
2022-12-22T05:23:40.067Z,4.80
2022-12-22T05:26:06.691Z,4.78
2022-12-22T05:28:35.177Z,4.79
2022-12-22T05:31:06.468Z,4.81
2022-12-22T05:33:32.889Z,4.76
2022-12-22T05:36:00.483Z,4.65
2022-12-22T05:38:26.897Z,4.71
2022-12-22T05:40:58.267Z,4.74
2022-12-22T05:43:33.114Z,4.69
2022-12-22T05:46:03.716Z,4.81
2022-12-22T05:48:54.885Z,4.77
2022-12-22T05:51:21.204Z,4.83
2022-12-22T05:53:47.523Z,4.84
2022-12-22T05:56:13.849Z,4.90
2022-12-22T05:58:40.208Z,4.91
2022-12-22T06:01:07.068Z,4.98
2022-12-22T06:03:33.540Z,4.84
2022-12-22T06:06:00.157Z,4.80
2022-12-22T06:08:31.624Z,4.78
2022-12-22T06:10:58.626Z,4.66
2022-12-22T06:13:25.644Z,4.59
2022-12-22T06:15:51.995Z,4.56
2022-12-22T06:18:18.387Z,4.62
2022-12-22T06:20:47.891Z,4.66
2022-12-22T06:23:15.265Z,4.76
2022-12-22T06:25:41.624Z,4.81
2022-12-22T06:28:11.331Z,4.82
2022-12-22T06:30:49.151Z,4.70
2022-12-22T06:33:15.566Z,4.70
2022-12-22T06:35:43.950Z,4.71
2022-12-22T06:38:10.298Z,4.58
2022-12-22T06:40:36.657Z,4.62
2022-12-22T06:43:09.780Z,4.72
2022-12-22T06:45:40.586Z,4.82
2022-12-22T06:48:13.308Z,4.76
2022-12-22T06:50:39.837Z,4.77
2022-12-22T06:53:06.511Z,4.84
2022-12-22T06:55:32.832Z,4.88
2022-12-22T06:57:59.227Z,4.87
2022-12-22T07:00:36.717Z,4.89
2022-12-22T07:03:03.204Z,4.90
2022-12-22T07:05:31.776Z,4.85
2022-12-22T07:08:02.702Z,4.82
2022-12-22T07:10:59.721Z,4.83
2022-12-22T07:13:27.736Z,4.92
2022-12-22T07:16:02.191Z,4.83
2022-12-22T07:18:29.636Z,4.81
2022-12-22T07:21:04.429Z,4.83
2022-12-22T07:23:31.338Z,4.86
2022-12-22T07:25:59.906Z,4.72
2022-12-22T07:28:26.316Z,4.84
2022-12-22T07:30:53.589Z,4.82
2022-12-22T07:33:20.223Z,4.82
2022-12-22T07:35:46.760Z,4.93
2022-12-22T07:38:13.355Z,4.93
2022-12-22T07:40:42.552Z,4.93
2022-12-22T07:43:09.825Z,4.91
2022-12-22T07:45:36.492Z,4.94
2022-12-22T07:48:22.933Z,4.95
2022-12-22T07:50:49.274Z,4.99
2022-12-22T07:53:15.603Z,5.05
2022-12-22T07:55:41.918Z,5.27
2022-12-22T07:58:08.236Z,5.16
2022-12-22T08:00:34.565Z,5.11
2022-12-22T08:03:04.107Z,5.22
2022-12-22T08:05:30.544Z,5.25
2022-12-22T08:07:56.905Z,5.27
2022-12-22T08:10:23.218Z,5.28
2022-12-22T08:12:49.660Z,5.37
2022-12-22T08:15:16.080Z,5.32
2022-12-22T08:17:42.746Z,5.37
2022-12-22T08:20:11.431Z,5.33
2022-12-22T08:22:37.759Z,5.33
2022-12-22T08:25:04.373Z,5.35
2022-12-22T08:27:39.947Z,5.37
2022-12-22T08:30:08.457Z,5.57
2022-12-22T08:32:36.030Z,5.55
2022-12-22T08:35:03.011Z,5.48
2022-12-22T08:37:41.052Z,5.48
2022-12-22T08:40:10.695Z,5.64
2022-12-22T08:42:37.179Z,5.64
2022-12-22T08:45:04.107Z,5.69
2022-12-22T08:47:30.445Z,5.61
2022-12-22T08:50:06.177Z,5.68
2022-12-22T08:52:32.541Z,5.77
2022-12-22T08:54:58.868Z,5.84
2022-12-22T08:57:25.209Z,5.91
2022-12-22T08:59:51.543Z,5.98
2022-12-22T09:02:19.082Z,6.08
2022-12-22T09:04:45.565Z,6.13
2022-12-22T09:07:11.981Z,6.14
2022-12-22T09:09:46.633Z,6.20
2022-12-22T09:12:12.971Z,6.07
2022-12-22T09:14:39.269Z,6.22
2022-12-22T09:17:05.710Z,6.41
2022-12-22T09:19:32.124Z,6.51
2022-12-22T09:21:58.506Z,6.55
2022-12-22T09:24:24.829Z,7.08
2022-12-22T09:26:51.225Z,7.25
2022-12-22T09:29:17.592Z,7.07
2022-12-22T09:31:44.176Z,6.93
2022-12-22T09:34:17.112Z,6.98
2022-12-22T09:36:44.643Z,7.04
2022-12-22T09:39:11.720Z,7.32
2022-12-22T09:41:43.943Z,7.38
2022-12-22T09:44:30.303Z,8.11
2022-12-22T09:46:58.043Z,8.74
2022-12-22T09:49:26.496Z,8.52
2022-12-22T09:51:54.462Z,8.44
2022-12-22T09:54:22.077Z,8.35
2022-12-22T09:56:48.469Z,8.21
2022-12-22T09:59:16.317Z,8.23
2022-12-22T10:01:56.950Z,8.18
2022-12-22T10:04:42.456Z,8.28
2022-12-22T10:07:08.753Z,7.83
2022-12-22T10:09:52.088Z,8.00
2022-12-22T10:12:21.278Z,8.05
2022-12-22T10:14:49.037Z,7.91
2022-12-22T10:17:28.055Z,7.83
2022-12-22T10:20:15.707Z,7.74
2022-12-22T10:22:49.945Z,7.77
2022-12-22T10:25:45.212Z,8.18
2022-12-22T10:28:19.624Z,8.12
2022-12-22T10:30:46.220Z,8.14
2022-12-22T10:33:14.912Z,8.19
2022-12-22T10:35:41.260Z,8.11
2022-12-22T10:38:27.430Z,7.94
2022-12-22T10:41:01.856Z,8.19
2022-12-22T10:43:34.056Z,8.23
2022-12-22T10:46:00.879Z,8.27
2022-12-22T10:48:28.041Z,8.43
2022-12-22T10:50:55.082Z,8.57
2022-12-22T10:53:21.557Z,8.64
2022-12-22T10:56:04.520Z,8.51
2022-12-22T10:58:30.872Z,8.46
2022-12-22T11:01:01.960Z,8.65
2022-12-22T11:03:29.246Z,8.84
2022-12-22T11:05:57.453Z,8.75
2022-12-22T11:08:24.735Z,8.88
2022-12-22T11:11:00.932Z,8.99
2022-12-22T11:13:27.267Z,8.72
2022-12-22T11:15:59.432Z,9.13
2022-12-22T11:18:45.635Z,9.13
2022-12-22T11:21:23.632Z,9.25
2022-12-22T11:23:50.535Z,9.26
2022-12-22T11:26:39.812Z,9.15
2022-12-22T11:29:15.067Z,9.43
2022-12-22T11:32:16.756Z,9.37
2022-12-22T11:34:58.161Z,9.42
2022-12-22T11:37:43.408Z,9.28
2022-12-22T11:40:24.621Z,9.38
2022-12-22T11:43:06.410Z,9.17
2022-12-22T11:45:51.770Z,9.19
2022-12-22T11:48:54.614Z,9.44
2022-12-22T11:51:26.977Z,9.38
2022-12-22T11:53:56.176Z,9.33
2022-12-22T11:56:24.061Z,9.25
2022-12-22T11:58:51.359Z,9.68
2022-12-22T12:01:26.028Z,9.38
2022-12-22T12:04:04.781Z,9.25
2022-12-22T12:06:36.963Z,9.31
2022-12-22T12:09:22.024Z,9.47
2022-12-22T12:12:22.808Z,9.50
2022-12-22T12:14:58.703Z,9.39
2022-12-22T12:17:44.195Z,9.36
2022-12-22T12:20:13.319Z,9.05
2022-12-22T12:22:48.821Z,8.77
2022-12-22T12:25:23.769Z,8.75
2022-12-22T12:28:10.771Z,8.72
2022-12-22T12:30:44.928Z,8.68
2022-12-22T12:33:20.886Z,8.89
2022-12-22T12:35:59.195Z,8.69
2022-12-22T12:39:06.293Z,8.77
2022-12-22T12:41:23.378Z,8.64
2022-12-22T12:43:52.155Z,8.43
2022-12-22T12:46:37.102Z,8.56
2022-12-22T12:49:03.566Z,8.33
2022-12-22T12:51:46.659Z,8.49
2022-12-22T12:54:37.556Z,8.74
2022-12-22T12:57:06.953Z,8.49
2022-12-22T12:59:39.379Z,8.44
2022-12-22T13:02:25.944Z,8.48
2022-12-22T13:05:07.750Z,8.47
2022-12-22T13:08:01.098Z,8.50
2022-12-22T13:10:27.601Z,8.33
2022-12-22T13:12:54.488Z,8.26
2022-12-22T13:15:33.110Z,8.22
2022-12-22T13:18:00.315Z,8.27
2022-12-22T13:20:47.104Z,8.21
2022-12-22T13:23:14.700Z,8.31
2022-12-22T13:25:44.274Z,8.11
2022-12-22T13:28:14.615Z,8.19
2022-12-22T13:30:49.306Z,8.27
2022-12-22T13:33:17.494Z,8.35
2022-12-22T13:35:48.459Z,8.24
2022-12-22T13:38:31.112Z,8.29
2022-12-22T13:41:26.807Z,8.59
2022-12-22T13:43:57.186Z,8.39
2022-12-22T13:46:26.804Z,8.45
2022-12-22T13:48:55.978Z,8.34
2022-12-22T13:51:24.541Z,8.26
2022-12-22T13:54:08.222Z,8.27
2022-12-22T13:56:38.232Z,8.32
2022-12-22T13:59:04.940Z,8.28
2022-12-22T14:01:31.392Z,8.26
2022-12-22T14:04:07.494Z,8.26
2022-12-22T14:06:36.223Z,8.19
2022-12-22T14:09:23.266Z,8.17
2022-12-22T14:11:57.057Z,8.06
2022-12-22T14:14:26.261Z,8.41
2022-12-22T14:16:53.681Z,8.43
2022-12-22T14:19:22.700Z,8.55
2022-12-22T14:21:54.391Z,8.57
2022-12-22T14:24:24.377Z,8.26
2022-12-22T14:26:52.270Z,8.27
2022-12-22T14:29:25.564Z,8.23
2022-12-22T14:31:56.286Z,8.31
2022-12-22T14:34:28.204Z,8.19
2022-12-22T14:36:54.868Z,8.24
2022-12-22T14:39:24.124Z,8.41
2022-12-22T14:41:52.854Z,8.31
2022-12-22T14:44:48.523Z,8.30
2022-12-22T14:47:18.102Z,8.65
2022-12-22T14:49:51.361Z,8.41
2022-12-22T14:52:29.733Z,8.44
2022-12-22T14:54:56.656Z,8.31
2022-12-22T14:57:42.565Z,8.44
2022-12-22T15:00:24.433Z,8.61
2022-12-22T15:02:56.477Z,8.46
2022-12-22T15:05:38.035Z,8.49
2022-12-22T15:08:08.366Z,8.40
2022-12-22T15:10:43.285Z,8.43
2022-12-22T15:13:19.192Z,8.45
2022-12-22T15:15:49.564Z,8.47
2022-12-22T15:18:25.249Z,8.37
2022-12-22T15:20:56.460Z,8.48
2022-12-22T15:23:25.946Z,8.51
2022-12-22T15:25:59.200Z,8.40
2022-12-22T15:28:25.711Z,8.63
2022-12-22T15:30:52.474Z,8.33
2022-12-22T15:33:20.009Z,8.36
2022-12-22T15:35:52.424Z,8.47
2022-12-22T15:38:20.189Z,8.54
2022-12-22T15:40:47.044Z,8.46
2022-12-22T15:43:37.185Z,8.57
2022-12-22T15:46:03.674Z,8.52
2022-12-22T15:48:33.011Z,8.47
2022-12-22T15:51:00.062Z,8.51
2022-12-22T15:53:27.571Z,8.40
2022-12-22T15:55:55.409Z,8.42
2022-12-22T15:58:23.732Z,8.45
2022-12-22T16:00:56.339Z,8.38
2022-12-22T16:03:22.840Z,8.36
2022-12-22T16:05:49.262Z,8.40
2022-12-22T16:08:18.365Z,8.22
2022-12-22T16:10:45.410Z,8.42
2022-12-22T16:13:13.516Z,8.33
2022-12-22T16:15:41.351Z,8.22
2022-12-22T16:18:11.691Z,8.17
2022-12-22T16:20:40.306Z,8.34
2022-12-22T16:23:07.949Z,8.44
2022-12-22T16:25:35.458Z,8.44
2022-12-22T16:28:02.375Z,8.40
2022-12-22T16:30:30.713Z,8.29
2022-12-22T16:32:57.235Z,8.16
2022-12-22T16:35:28.782Z,8.04
2022-12-22T16:37:55.644Z,8.20
2022-12-22T16:40:22.303Z,8.27
2022-12-22T16:45:51.292Z,8.28
2022-12-22T16:48:40.815Z,8.36
2022-12-22T16:51:07.476Z,8.31
2022-12-22T16:53:33.828Z,8.28
2022-12-22T16:56:00.515Z,8.25
2022-12-22T16:58:26.944Z,8.30
2022-12-22T17:00:53.350Z,8.27
2022-12-22T17:03:22.665Z,8.16
2022-12-22T17:05:51.605Z,8.34
2022-12-22T17:08:21.202Z,8.13
2022-12-22T17:10:47.696Z,8.30
2022-12-22T17:13:14.215Z,8.26
2022-12-22T17:15:40.588Z,8.12
2022-12-22T17:18:15.287Z,8.23
2022-12-22T17:20:41.856Z,8.25
2022-12-22T17:23:21.419Z,8.18
2022-12-22T17:25:48.848Z,8.13
2022-12-22T17:28:15.332Z,8.21
2022-12-22T17:30:41.819Z,8.36
2022-12-22T17:33:13.500Z,8.19
2022-12-22T17:35:42.447Z,8.26
2022-12-22T17:38:18.370Z,8.19
2022-12-22T17:40:45.766Z,8.06
2022-12-22T17:43:16.578Z,8.07
2022-12-22T17:45:49.088Z,8.16
2022-12-22T17:48:24.518Z,7.97
2022-12-22T17:50:57.812Z,8.02
2022-12-22T17:53:26.297Z,8.10
2022-12-22T17:56:11.145Z,8.08
2022-12-22T17:58:39.616Z,8.08
2022-12-22T18:01:09.924Z,8.04
2022-12-22T18:03:36.410Z,8.07
2022-12-22T18:06:02.950Z,8.03
2022-12-22T18:08:29.304Z,8.06
2022-12-22T18:10:55.698Z,8.06
2022-12-22T18:13:25.153Z,8.11
2022-12-22T18:15:51.904Z,8.11
2022-12-22T18:18:21.580Z,8.17
2022-12-22T18:21:05.933Z,8.22
2022-12-22T18:23:34.371Z,8.04
2022-12-22T18:26:01.515Z,7.97
2022-12-22T18:28:27.934Z,8.16
2022-12-22T18:30:55.354Z,8.17
2022-12-22T18:33:21.696Z,8.22
2022-12-22T18:35:50.134Z,8.12
2022-12-22T18:38:32.940Z,8.09
2022-12-22T18:40:59.472Z,8.20
2022-12-22T18:43:26.013Z,8.21
2022-12-22T18:45:54.550Z,8.22
2022-12-22T18:48:21.117Z,8.23
2022-12-22T18:50:47.487Z,8.26
2022-12-22T18:53:26.508Z,8.20
2022-12-22T18:55:53.081Z,8.20
2022-12-22T18:58:19.596Z,8.28
2022-12-22T19:00:46.222Z,8.18
2022-12-22T19:03:20.481Z,8.16
2022-12-22T19:05:47.690Z,8.09
2022-12-22T19:08:15.272Z,8.09
2022-12-22T19:10:43.860Z,8.07
2022-12-22T19:13:17.412Z,8.10
2022-12-22T19:15:44.781Z,7.98
2022-12-22T19:18:16.708Z,7.87
2022-12-22T19:20:45.024Z,7.84
2022-12-22T19:23:15.710Z,7.79
2022-12-22T19:25:43.364Z,7.69
2022-12-22T19:28:18.776Z,7.74
2022-12-22T19:30:45.198Z,7.77
2022-12-22T19:33:17.148Z,7.74
2022-12-22T19:35:43.475Z,7.74
2022-12-22T19:38:17.205Z,7.68
2022-12-22T19:40:44.663Z,7.71
2022-12-22T19:43:11.221Z,7.55
2022-12-22T19:45:37.726Z,7.69
2022-12-22T19:48:04.888Z,7.54
2022-12-22T19:50:32.597Z,7.55
2022-12-22T19:53:07.117Z,7.31
2022-12-22T19:55:36.380Z,7.44
2022-12-22T19:58:03.026Z,7.50
2022-12-22T20:00:29.491Z,7.56
2022-12-22T20:02:57.263Z,7.53
2022-12-22T20:05:24.753Z,7.59
2022-12-22T20:07:51.976Z,7.50
2022-12-22T20:10:20.167Z,7.53
2022-12-22T20:12:47.677Z,7.77
2022-12-22T20:15:14.154Z,7.74
2022-12-22T20:17:40.489Z,7.77
2022-12-22T20:20:07.215Z,7.77
2022-12-22T20:22:36.997Z,7.82
2022-12-22T20:25:03.451Z,7.80
2022-12-22T20:27:32.802Z,7.90
2022-12-22T20:30:00.052Z,7.93
2022-12-22T20:32:28.331Z,7.91
2022-12-22T20:34:55.183Z,7.97
2022-12-22T20:37:21.678Z,7.95
2022-12-22T20:39:48.015Z,7.96
2022-12-22T20:42:24.123Z,7.96
2022-12-22T20:45:02.524Z,7.96
2022-12-22T20:47:30.922Z,7.99
2022-12-22T20:49:57.263Z,7.98
2022-12-22T20:52:23.591Z,7.97
2022-12-22T20:54:49.971Z,8.01
2022-12-22T20:57:16.449Z,8.04
2022-12-22T20:59:43.394Z,8.00
2022-12-22T21:02:23.713Z,8.00
2022-12-22T21:04:50.225Z,7.95
2022-12-22T21:07:16.579Z,7.91
2022-12-22T21:09:42.925Z,7.84
2022-12-22T21:12:11.436Z,7.77
2022-12-22T21:14:37.827Z,7.70
2022-12-22T21:17:04.229Z,7.68
2022-12-22T21:19:30.621Z,7.63
2022-12-22T21:21:56.960Z,7.58
2022-12-22T21:24:23.297Z,7.52
2022-12-22T21:26:51.823Z,7.51
2022-12-22T21:29:21.651Z,7.42
2022-12-22T21:31:48.027Z,7.41
2022-12-22T21:34:14.371Z,7.34
2022-12-22T21:36:43.392Z,7.32
2022-12-22T21:39:26.366Z,7.26
2022-12-22T21:42:03.261Z,7.28
2022-12-22T21:44:34.071Z,7.29
2022-12-22T21:47:00.720Z,7.22
2022-12-22T21:49:28.904Z,7.18
2022-12-22T21:51:55.557Z,7.18
2022-12-22T21:54:23.547Z,7.23
2022-12-22T21:56:50.659Z,7.25
2022-12-22T21:59:19.391Z,7.35
2022-12-22T22:01:46.560Z,7.35
2022-12-22T22:04:13.270Z,7.40
2022-12-22T22:06:39.730Z,7.40
2022-12-22T22:09:08.157Z,7.41
2022-12-22T22:11:54.825Z,7.37
2022-12-22T22:14:21.677Z,7.41
2022-12-22T22:16:56.021Z,7.43
2022-12-22T22:19:22.343Z,7.44
2022-12-22T22:21:48.802Z,7.45
2022-12-22T22:24:16.165Z,7.47
2022-12-22T22:26:44.475Z,7.46
2022-12-22T22:29:10.792Z,7.43
2022-12-22T22:31:37.190Z,7.42
2022-12-22T22:34:03.565Z,7.44
2022-12-22T22:36:29.910Z,7.43
2022-12-22T22:38:56.266Z,7.44
2022-12-22T22:41:22.748Z,7.45
2022-12-22T22:43:49.092Z,7.47
2022-12-22T22:46:15.519Z,7.38
2022-12-22T22:48:41.932Z,7.49
2022-12-22T22:51:09.908Z,7.38
2022-12-22T22:53:36.392Z,7.37
2022-12-22T22:56:02.851Z,7.39
2022-12-22T22:58:29.690Z,7.33
2022-12-22T23:00:56.510Z,7.35
2022-12-22T23:03:23.230Z,7.35
2022-12-22T23:05:49.709Z,7.37
2022-12-22T23:08:16.082Z,7.37
2022-12-22T23:10:47.311Z,7.38
2022-12-22T23:13:13.662Z,7.42
2022-12-22T23:15:40.009Z,7.34
2022-12-22T23:18:07.516Z,7.31
2022-12-22T23:20:33.836Z,7.35
2022-12-22T23:23:01.194Z,7.37
2022-12-22T23:25:27.517Z,7.39
2022-12-22T23:27:53.852Z,7.28
2022-12-22T23:30:20.190Z,7.35
2022-12-22T23:32:46.597Z,7.40
2022-12-22T23:35:12.921Z,7.33
2022-12-22T23:37:39.263Z,7.39
2022-12-22T23:42:57.062Z,7.34
2022-12-22T23:45:23.685Z,7.35
2022-12-22T23:47:50.046Z,7.29
2022-12-22T23:50:16.371Z,7.32
2022-12-22T23:52:47.330Z,7.27
2022-12-22T23:55:15.734Z,7.32
2022-12-22T23:57:42.119Z,7.32
